createdAt,value
2017-10-17T00:00:38.180Z,45.30
2017-10-17T00:03:06.631Z,47.83
2017-10-17T00:05:35.235Z,55.10
2017-10-17T00:08:04.470Z,54.97
2017-10-17T00:10:32.909Z,53.73
2017-10-17T00:13:02.254Z,50.07
2017-10-17T00:15:30.692Z,39.03
2017-10-17T00:17:59.928Z,38.90
2017-10-17T00:20:28.414Z,38.67
2017-10-17T00:22:56.898Z,51.67
2017-10-17T00:25:25.342Z,48.43
2017-10-17T00:27:54.685Z,39.03
2017-10-17T00:30:29.121Z,36.80
2017-10-17T00:33:03.110Z,55.83
2017-10-17T00:38:29.364Z,42.37
2017-10-17T00:40:57.810Z,58.90
2017-10-17T00:43:30.485Z,36.57
2017-10-17T00:46:01.263Z,33.70
2017-10-17T00:48:29.730Z,37.80
2017-10-17T00:53:55.792Z,46.47
2017-10-17T00:56:24.228Z,39.23
2017-10-17T00:58:53.453Z,55.90
2017-10-17T01:01:21.959Z,39.53
2017-10-17T01:03:50.427Z,54.47
2017-10-17T01:06:18.870Z,29.57
2017-10-17T01:08:48.105Z,43.23
2017-10-17T01:11:16.552Z,41.53
2017-10-17T01:13:45.767Z,48.87
2017-10-17T01:16:14.225Z,41.00
2017-10-17T01:18:42.678Z,34.13
2017-10-17T01:21:15.718Z,54.53
2017-10-17T01:26:51.821Z,63.57
2017-10-17T01:29:29.526Z,45.50
2017-10-17T01:31:58.112Z,54.03
2017-10-17T01:34:41.079Z,67.43
2017-10-17T01:37:09.608Z,63.17
2017-10-17T01:39:48.805Z,53.77
2017-10-17T01:42:19.895Z,45.03
2017-10-17T01:44:49.201Z,42.50
2017-10-17T01:47:18.394Z,60.10
2017-10-17T01:49:48.211Z,36.27
2017-10-17T01:52:16.683Z,36.40
2017-10-17T01:55:06.674Z,48.97
2017-10-17T01:57:47.374Z,54.70
2017-10-17T02:00:16.417Z,56.10
2017-10-17T02:02:44.926Z,43.13
2017-10-17T02:05:13.382Z,55.63
2017-10-17T02:07:53.529Z,57.43
2017-10-17T02:10:22.745Z,51.33
2017-10-17T02:12:51.209Z,47.87
2017-10-17T02:15:20.423Z,58.03
2017-10-17T02:18:27.316Z,62.43
2017-10-17T02:21:07.475Z,67.90
2017-10-17T02:23:35.954Z,53.53
2017-10-17T02:26:23.793Z,46.53
2017-10-17T02:29:03.533Z,50.80
2017-10-17T02:31:32.781Z,52.90
2017-10-17T02:34:23.757Z,58.50
2017-10-17T02:36:52.213Z,61.50
2017-10-17T02:39:20.677Z,53.80
2017-10-17T02:41:49.885Z,49.57
2017-10-17T02:44:18.344Z,52.83
2017-10-17T02:46:49.182Z,47.17
2017-10-17T02:49:19.344Z,52.07
2017-10-17T02:51:47.835Z,46.73
2017-10-17T02:54:16.302Z,45.47
2017-10-17T02:56:44.742Z,46.50
2017-10-17T02:59:14.922Z,51.80
2017-10-17T03:01:55.021Z,71.17
2017-10-17T03:04:26.769Z,45.10
2017-10-17T03:06:55.210Z,40.13
2017-10-17T03:09:23.678Z,46.03
2017-10-17T03:11:52.122Z,41.40
2017-10-17T03:14:35.806Z,45.27
2017-10-17T03:17:04.255Z,55.03
2017-10-17T03:19:33.481Z,48.37
2017-10-17T03:22:04.309Z,50.60
2017-10-17T03:24:48.011Z,39.70
2017-10-17T03:27:16.554Z,46.33
2017-10-17T03:29:45.033Z,45.63
2017-10-17T03:32:13.503Z,56.63
2017-10-17T03:34:52.826Z,49.50
2017-10-17T03:37:35.693Z,46.03
2017-10-17T03:40:26.653Z,38.90
2017-10-17T03:43:01.335Z,40.60
2017-10-17T03:45:29.898Z,39.67
2017-10-17T03:48:01.343Z,48.23
2017-10-17T03:50:44.783Z,38.87
2017-10-17T03:56:24.884Z,43.13
2017-10-17T03:58:55.589Z,46.93
2017-10-17T04:01:33.973Z,39.00
2017-10-17T04:07:26.674Z,42.53
2017-10-17T04:13:15.351Z,36.13
2017-10-17T04:15:43.793Z,49.13
2017-10-17T04:18:26.546Z,38.00
2017-10-17T04:20:58.421Z,48.07
2017-10-17T04:23:31.291Z,49.63
2017-10-17T04:26:19.233Z,36.17
2017-10-17T04:28:48.470Z,28.43
2017-10-17T04:31:28.486Z,46.87
2017-10-17T04:37:19.205Z,30.97
2017-10-17T04:39:47.684Z,35.57
2017-10-17T04:45:47.337Z,38.60
2017-10-17T04:52:10.098Z,41.77
2017-10-17T04:54:55.133Z,42.57
2017-10-17T04:57:26.827Z,37.87
2017-10-17T05:00:12.613Z,32.73
2017-10-17T05:06:09.013Z,30.27
2017-10-17T05:09:02.993Z,37.23
2017-10-17T05:11:32.148Z,43.67
2017-10-17T05:17:16.940Z,32.67
2017-10-17T05:19:50.674Z,35.33
2017-10-17T05:22:23.557Z,31.10
2017-10-17T05:24:52.631Z,29.27
2017-10-17T05:27:32.879Z,39.03
2017-10-17T05:30:04.843Z,36.00
2017-10-17T05:32:33.331Z,33.43
2017-10-17T05:35:01.915Z,33.17
2017-10-17T05:37:30.363Z,34.13
2017-10-17T05:40:01.007Z,37.80
2017-10-17T05:42:29.505Z,26.80
2017-10-17T05:44:57.995Z,38.80
2017-10-17T05:50:56.885Z,38.67
2017-10-17T05:53:25.333Z,40.27
2017-10-17T05:55:53.814Z,39.23
2017-10-17T05:58:22.257Z,29.40
2017-10-17T06:00:50.730Z,40.07
2017-10-17T06:03:19.177Z,49.40
2017-10-17T06:05:48.407Z,35.63
2017-10-17T06:08:16.867Z,31.67
2017-10-17T06:10:46.097Z,36.20
2017-10-17T06:13:14.560Z,34.13
2017-10-17T06:15:43.062Z,40.90
2017-10-17T06:18:11.529Z,36.23
2017-10-17T06:20:39.993Z,30.30
2017-10-17T06:23:09.321Z,46.67
2017-10-17T06:25:37.760Z,33.53
2017-10-17T06:28:06.999Z,29.13
2017-10-17T06:30:35.489Z,34.43
2017-10-17T06:33:04.074Z,43.00
2017-10-17T06:35:32.551Z,48.20
2017-10-17T06:38:01.021Z,30.30
2017-10-17T06:40:29.529Z,37.43
2017-10-17T06:42:57.993Z,32.93
2017-10-17T06:45:26.441Z,36.23
2017-10-17T06:47:55.698Z,33.13
2017-10-17T06:50:24.171Z,30.90
2017-10-17T06:52:52.609Z,36.40
2017-10-17T06:55:21.943Z,33.50
2017-10-17T06:57:50.383Z,40.07
2017-10-17T07:00:19.615Z,44.93
2017-10-17T07:02:48.060Z,33.40
2017-10-17T07:05:17.293Z,26.60
2017-10-17T07:07:46.035Z,32.80
2017-10-17T07:10:14.507Z,33.63
2017-10-17T07:12:42.955Z,46.20
2017-10-17T07:15:11.422Z,32.33
2017-10-17T07:17:39.865Z,27.87
2017-10-17T07:20:08.346Z,36.30
2017-10-17T07:22:36.884Z,30.77
2017-10-17T07:25:05.352Z,29.70
2017-10-17T07:27:33.855Z,42.00
2017-10-17T07:30:02.321Z,29.80
2017-10-17T07:32:30.785Z,26.07
2017-10-17T07:34:59.993Z,42.57
2017-10-17T07:37:28.498Z,32.93
2017-10-17T07:39:56.950Z,34.20
2017-10-17T07:42:25.465Z,41.23
2017-10-17T07:44:53.911Z,29.33
2017-10-17T07:47:23.149Z,39.53
2017-10-17T07:49:51.627Z,36.73
2017-10-17T07:52:20.093Z,29.43
2017-10-17T07:54:48.538Z,32.10
2017-10-17T07:57:17.779Z,27.60
2017-10-17T07:59:46.221Z,26.37
2017-10-17T08:02:15.450Z,27.33
2017-10-17T08:04:43.889Z,23.37
2017-10-17T08:07:12.357Z,27.43
2017-10-17T08:09:40.798Z,55.20
2017-10-17T08:12:09.269Z,32.03
2017-10-17T08:14:37.705Z,39.90
2017-10-17T08:17:06.254Z,27.23
2017-10-17T08:19:34.725Z,27.70
2017-10-17T08:22:03.222Z,34.53
2017-10-17T08:24:31.691Z,30.00
2017-10-17T08:27:00.134Z,25.67
2017-10-17T08:29:29.373Z,27.00
2017-10-17T08:31:57.871Z,29.73
2017-10-17T08:34:26.445Z,32.37
2017-10-17T08:36:54.920Z,26.73
2017-10-17T08:39:23.416Z,28.63
2017-10-17T08:41:51.857Z,24.03
2017-10-17T08:44:21.193Z,38.97
2017-10-17T08:46:49.682Z,28.30
2017-10-17T08:49:18.978Z,22.73
2017-10-17T08:51:47.426Z,35.13
2017-10-17T08:54:16.658Z,42.83
2017-10-17T08:56:45.106Z,27.07
2017-10-17T08:59:14.314Z,44.53
2017-10-17T09:01:42.793Z,31.03
2017-10-17T09:04:11.244Z,39.57
2017-10-17T09:06:39.709Z,26.30
2017-10-17T09:09:08.149Z,31.80
2017-10-17T09:11:36.618Z,34.90
2017-10-17T09:14:05.830Z,35.90
2017-10-17T09:16:34.302Z,34.00
2017-10-17T09:19:02.748Z,31.33
2017-10-17T09:21:31.222Z,34.97
2017-10-17T09:23:59.676Z,33.00
2017-10-17T09:26:28.136Z,39.57
2017-10-17T09:28:56.640Z,36.43
2017-10-17T09:31:25.224Z,37.70
2017-10-17T09:33:53.670Z,43.13
2017-10-17T09:36:22.874Z,39.37
2017-10-17T09:38:52.205Z,40.90
2017-10-17T09:41:20.645Z,35.23
2017-10-17T09:43:49.873Z,35.83
2017-10-17T09:46:18.316Z,37.20
2017-10-17T09:48:47.550Z,32.53
2017-10-17T09:51:15.994Z,35.30
2017-10-17T09:53:44.457Z,36.33
2017-10-17T09:56:12.898Z,35.00
2017-10-17T09:58:41.361Z,26.83
2017-10-17T10:01:10.572Z,53.50
2017-10-17T10:03:39.037Z,33.80
2017-10-17T10:06:08.248Z,39.00
2017-10-17T10:08:36.750Z,45.50
2017-10-17T10:11:05.189Z,31.87
2017-10-17T10:13:34.405Z,32.10
2017-10-17T10:16:03.638Z,38.67
2017-10-17T10:18:32.078Z,36.70
2017-10-17T10:21:01.315Z,35.37
2017-10-17T10:23:29.761Z,27.00
2017-10-17T10:25:58.998Z,36.20
2017-10-17T10:28:27.441Z,44.90
2017-10-17T10:30:56.679Z,26.70
2017-10-17T10:33:25.124Z,39.20
2017-10-17T10:35:54.355Z,26.63
2017-10-17T10:38:22.801Z,28.10
2017-10-17T10:40:52.035Z,27.97
2017-10-17T10:43:20.526Z,29.23
2017-10-17T10:45:49.097Z,28.93
2017-10-17T10:48:17.554Z,27.50
2017-10-17T10:50:46.890Z,33.57
2017-10-17T10:53:15.329Z,44.07
2017-10-17T10:55:44.566Z,28.50
2017-10-17T10:58:13.042Z,38.57
2017-10-17T11:00:41.482Z,26.23
2017-10-17T11:03:10.845Z,41.77
2017-10-17T11:05:39.285Z,30.70
2017-10-17T11:08:08.610Z,33.47
2017-10-17T11:10:37.058Z,28.70
2017-10-17T11:13:06.289Z,33.03
2017-10-17T11:15:34.730Z,37.67
2017-10-17T11:18:03.961Z,27.13
2017-10-17T11:20:32.401Z,37.23
2017-10-17T11:23:00.861Z,34.17
2017-10-17T11:25:29.300Z,30.80
2017-10-17T11:27:57.761Z,37.67
2017-10-17T11:30:26.974Z,25.83
2017-10-17T11:32:55.441Z,17.07
2017-10-17T11:35:24.654Z,29.83
2017-10-17T11:37:53.121Z,30.20
2017-10-17T11:40:40.186Z,28.53
2017-10-17T11:43:26.419Z,36.23
2017-10-17T11:45:54.870Z,39.23
2017-10-17T11:48:23.341Z,32.53
2017-10-17T11:50:51.814Z,35.03
2017-10-17T11:53:20.265Z,34.30
2017-10-17T11:55:49.494Z,41.07
2017-10-17T11:58:17.933Z,26.40
2017-10-17T12:00:47.191Z,27.97
2017-10-17T12:03:15.666Z,27.13
2017-10-17T12:05:44.133Z,31.13
2017-10-17T12:08:12.632Z,35.77
2017-10-17T12:10:41.097Z,26.47
2017-10-17T12:13:09.543Z,32.93
2017-10-17T12:15:38.783Z,28.53
2017-10-17T12:18:07.234Z,42.20
2017-10-17T12:20:36.465Z,38.30
2017-10-17T12:23:05.065Z,30.93
2017-10-17T12:25:33.552Z,30.60
2017-10-17T12:28:02.031Z,28.37
2017-10-17T12:30:30.474Z,35.13
2017-10-17T12:32:59.711Z,38.00
2017-10-17T12:35:28.153Z,41.83
2017-10-17T12:37:57.390Z,31.20
2017-10-17T12:40:25.833Z,32.03
2017-10-17T12:42:55.173Z,35.20
2017-10-17T12:45:23.618Z,41.83
2017-10-17T12:47:52.955Z,40.43
2017-10-17T12:50:21.439Z,44.40
2017-10-17T12:52:49.901Z,33.73
2017-10-17T12:55:18.354Z,32.77
2017-10-17T12:57:47.586Z,38.77
2017-10-17T13:00:16.029Z,42.43
2017-10-17T13:02:45.266Z,29.43
2017-10-17T13:05:13.763Z,43.73
2017-10-17T13:07:42.230Z,43.50
2017-10-17T13:10:10.674Z,42.70
2017-10-17T13:12:39.885Z,34.67
2017-10-17T13:15:09.126Z,36.77
2017-10-17T13:17:37.565Z,38.27
2017-10-17T13:20:06.796Z,38.67
2017-10-17T13:22:35.291Z,29.00
2017-10-17T13:25:03.758Z,36.20
2017-10-17T13:27:32.201Z,41.10
2017-10-17T13:30:01.510Z,45.33
2017-10-17T13:32:30.722Z,35.37
2017-10-17T13:34:59.233Z,34.80
2017-10-17T13:37:27.682Z,33.30
2017-10-17T13:39:57.008Z,37.23
2017-10-17T13:42:25.449Z,39.20
2017-10-17T13:44:54.685Z,34.37
2017-10-17T13:47:23.127Z,46.90
2017-10-17T13:49:52.386Z,26.13
2017-10-17T13:52:20.837Z,36.47
2017-10-17T13:54:49.280Z,28.00
2017-10-17T13:57:17.824Z,28.23
2017-10-17T13:59:46.301Z,34.87
2017-10-17T14:02:14.778Z,36.00
2017-10-17T14:04:43.270Z,29.30
2017-10-17T14:07:11.856Z,47.57
2017-10-17T14:09:40.344Z,39.43
2017-10-17T14:12:08.815Z,30.73
2017-10-17T14:14:37.270Z,39.40
2017-10-17T14:17:06.507Z,40.03
2017-10-17T14:19:34.973Z,40.67
2017-10-17T14:22:03.470Z,31.53
2017-10-17T14:24:31.912Z,32.43
2017-10-17T14:27:01.151Z,41.90
2017-10-17T14:29:29.622Z,38.40
2017-10-17T14:31:58.091Z,32.97
2017-10-17T14:34:26.529Z,37.20
2017-10-17T14:36:55.067Z,39.20
2017-10-17T14:39:23.525Z,35.60
2017-10-17T14:41:52.728Z,29.03
2017-10-17T14:44:21.239Z,26.63
2017-10-17T14:46:49.714Z,46.73
2017-10-17T14:49:18.181Z,34.80
2017-10-17T14:51:46.637Z,29.70
2017-10-17T14:54:15.883Z,30.77
2017-10-17T14:56:44.359Z,47.00
2017-10-17T14:59:12.829Z,61.47
2017-10-17T15:01:41.326Z,55.37
2017-10-17T15:04:09.903Z,37.17
2017-10-17T15:06:38.346Z,29.90
2017-10-17T15:09:07.573Z,32.03
2017-10-17T15:11:36.018Z,45.67
2017-10-17T15:14:05.252Z,29.73
2017-10-17T15:16:33.707Z,36.20
2017-10-17T15:19:03.050Z,30.47
2017-10-17T15:21:31.538Z,36.10
2017-10-17T15:23:59.978Z,22.90
2017-10-17T15:26:29.298Z,37.23
2017-10-17T15:28:57.737Z,35.00
2017-10-17T15:31:26.286Z,28.43
2017-10-17T15:33:54.734Z,38.53
2017-10-17T15:36:23.962Z,31.10
2017-10-17T15:38:52.401Z,28.40
2017-10-17T15:41:21.743Z,29.03
2017-10-17T15:43:50.186Z,32.70
2017-10-17T15:46:19.413Z,25.67
2017-10-17T15:48:47.852Z,35.30
2017-10-17T15:51:16.317Z,30.37
2017-10-17T15:53:44.753Z,31.87
2017-10-17T15:56:13.255Z,31.83
2017-10-17T15:58:41.852Z,35.20
2017-10-17T16:01:10.299Z,30.00
2017-10-17T16:03:38.766Z,29.03
2017-10-17T16:06:07.969Z,30.53
2017-10-17T16:08:37.203Z,35.47
2017-10-17T16:11:05.642Z,29.73
2017-10-17T16:13:34.874Z,45.07
2017-10-17T16:16:03.313Z,31.90
2017-10-17T16:18:32.549Z,41.47
2017-10-17T16:21:00.998Z,38.83
2017-10-17T16:23:30.230Z,42.20
2017-10-17T16:25:58.676Z,49.73
2017-10-17T16:28:27.908Z,32.40
2017-10-17T16:30:56.345Z,35.60
2017-10-17T16:33:24.821Z,51.10
2017-10-17T16:35:53.269Z,35.37
2017-10-17T16:38:21.717Z,41.20
2017-10-17T16:40:51.051Z,39.23
2017-10-17T16:43:19.510Z,33.03
2017-10-17T16:45:47.985Z,44.77
2017-10-17T16:48:16.493Z,36.00
2017-10-17T16:50:44.965Z,41.33
2017-10-17T16:53:13.458Z,51.57
2017-10-17T16:55:41.919Z,49.03
2017-10-17T16:58:10.374Z,39.53
2017-10-17T17:00:39.749Z,43.57
2017-10-17T17:03:08.192Z,40.00
2017-10-17T17:05:36.657Z,50.00
2017-10-17T17:08:05.865Z,62.20
2017-10-17T17:10:34.338Z,49.30
2017-10-17T17:13:03.545Z,46.97
2017-10-17T17:15:32.155Z,36.10
2017-10-17T17:18:00.613Z,53.37
2017-10-17T17:20:29.053Z,39.80
2017-10-17T17:22:57.600Z,47.83
2017-10-17T17:25:26.041Z,48.23
2017-10-17T17:27:55.269Z,50.20
2017-10-17T17:30:23.773Z,53.43
2017-10-17T17:32:52.343Z,57.00
2017-10-17T17:35:20.785Z,58.67
2017-10-17T17:37:50.014Z,42.73
2017-10-17T17:40:18.512Z,43.43
2017-10-17T17:42:46.978Z,44.67
2017-10-17T17:45:15.425Z,59.63
2017-10-17T17:47:44.654Z,50.57
2017-10-17T17:50:13.099Z,48.80
2017-10-17T17:52:41.629Z,46.40
2017-10-17T17:55:10.126Z,50.17
2017-10-17T17:57:38.596Z,43.20
2017-10-17T18:00:07.052Z,45.73
2017-10-17T18:02:36.381Z,52.90
2017-10-17T18:05:04.821Z,54.47
2017-10-17T18:07:34.062Z,57.43
2017-10-17T18:10:02.515Z,56.47
2017-10-17T18:12:31.731Z,70.77
2017-10-17T18:15:00.223Z,56.10
2017-10-17T18:17:28.714Z,73.57
2017-10-17T18:19:57.182Z,66.07
2017-10-17T18:22:25.680Z,49.30
2017-10-17T18:24:54.145Z,61.20
2017-10-17T18:27:22.634Z,65.93
2017-10-17T18:29:51.217Z,64.33
2017-10-17T18:32:19.654Z,76.63
2017-10-17T18:34:48.886Z,61.17
2017-10-17T18:37:17.332Z,67.03
2017-10-17T18:39:46.571Z,71.83
2017-10-17T18:42:15.025Z,55.20
2017-10-17T18:44:44.234Z,72.17
2017-10-17T18:47:12.747Z,72.57
2017-10-17T18:49:41.199Z,79.80
2017-10-17T18:52:09.704Z,66.00
2017-10-17T18:54:38.161Z,76.73
2017-10-17T18:57:07.393Z,70.83
2017-10-17T18:59:35.874Z,73.27
2017-10-17T19:02:04.414Z,74.37
2017-10-17T19:04:33.658Z,78.17
2017-10-17T19:07:02.238Z,72.30
2017-10-17T19:09:30.682Z,66.57
2017-10-17T19:11:59.922Z,77.70
2017-10-17T19:14:28.711Z,58.43
2017-10-17T19:16:57.193Z,77.07
2017-10-17T19:19:25.671Z,59.00
2017-10-17T19:21:54.115Z,77.73
2017-10-17T19:24:23.459Z,50.13
2017-10-17T19:26:51.900Z,75.90
2017-10-17T19:29:21.140Z,66.43
2017-10-17T19:31:49.582Z,70.77
2017-10-17T19:34:18.823Z,66.33
2017-10-17T19:36:47.262Z,51.20
2017-10-17T19:39:16.489Z,87.70
2017-10-17T19:41:44.938Z,67.57
2017-10-17T19:44:14.288Z,55.80
2017-10-17T19:46:42.761Z,46.17
2017-10-17T19:49:11.250Z,69.67
2017-10-17T19:51:39.708Z,78.70
2017-10-17T19:54:08.174Z,60.13
2017-10-17T19:56:37.406Z,64.47
2017-10-17T19:59:05.882Z,85.93
2017-10-17T20:01:34.377Z,99.73
2017-10-17T20:04:02.846Z,88.00
2017-10-17T20:06:31.334Z,88.73
2017-10-17T20:08:59.805Z,92.77
2017-10-17T20:11:28.306Z,77.23
2017-10-17T20:13:56.753Z,94.10
2017-10-17T20:16:26.090Z,95.13
2017-10-17T20:18:54.536Z,116.90
2017-10-17T20:21:23.771Z,104.30
2017-10-17T20:23:52.218Z,93.80
2017-10-17T20:26:20.727Z,88.70
2017-10-17T20:28:49.165Z,99.00
2017-10-17T20:31:18.393Z,95.70
2017-10-17T20:33:46.894Z,106.87
2017-10-17T20:36:15.365Z,95.63
2017-10-17T20:38:43.810Z,94.13
2017-10-17T20:41:13.159Z,99.07
2017-10-17T20:43:41.601Z,78.27
2017-10-17T20:46:10.829Z,88.13
2017-10-17T20:48:39.269Z,96.60
2017-10-17T20:51:08.514Z,98.00
2017-10-17T20:53:36.985Z,89.40
2017-10-17T20:56:05.481Z,92.60
2017-10-17T20:58:33.941Z,97.33
2017-10-17T21:01:02.450Z,88.70
2017-10-17T21:03:30.927Z,71.97
2017-10-17T21:05:59.407Z,70.13
2017-10-17T21:08:27.877Z,101.63
2017-10-17T21:10:56.318Z,60.93
2017-10-17T21:13:24.786Z,72.73
2017-10-17T21:15:53.342Z,82.13
2017-10-17T21:18:21.801Z,66.63
2017-10-17T21:20:50.299Z,76.40
2017-10-17T21:23:18.765Z,71.83
2017-10-17T21:25:47.264Z,54.33
2017-10-17T21:28:15.711Z,72.70
2017-10-17T21:30:44.941Z,91.63
2017-10-17T21:33:13.435Z,104.07
2017-10-17T21:35:41.897Z,96.83
2017-10-17T21:38:10.362Z,74.73
2017-10-17T21:40:39.692Z,82.47
2017-10-17T21:43:08.149Z,77.80
2017-10-17T21:45:36.613Z,80.97
2017-10-17T21:48:05.817Z,63.10
2017-10-17T21:50:35.153Z,72.67
2017-10-17T21:53:03.650Z,114.70
2017-10-17T21:55:32.201Z,114.57
2017-10-17T21:58:00.711Z,76.80
2017-10-17T22:00:46.846Z,67.20
2017-10-17T22:03:15.297Z,94.13
2017-10-17T22:05:43.763Z,97.93
2017-10-17T22:08:12.253Z,89.70
2017-10-17T22:10:40.693Z,84.77
2017-10-17T22:13:10.035Z,98.37
2017-10-17T22:15:38.480Z,91.53
2017-10-17T22:18:07.818Z,86.30
2017-10-17T22:20:36.261Z,136.30
2017-10-17T22:23:05.603Z,74.60
2017-10-17T22:25:34.050Z,99.70
2017-10-17T22:28:02.560Z,117.63
2017-10-17T22:30:31.010Z,80.77
2017-10-17T22:33:00.242Z,99.23
2017-10-17T22:35:28.699Z,85.10
2017-10-17T22:37:57.131Z,102.90
2017-10-17T22:40:25.686Z,98.77
2017-10-17T22:42:54.137Z,112.03
2017-10-17T22:45:23.476Z,91.97
2017-10-17T22:47:51.965Z,103.13
2017-10-17T22:50:20.433Z,92.47
2017-10-17T22:52:48.877Z,97.37
2017-10-17T22:55:18.212Z,93.30
2017-10-17T22:57:46.653Z,99.60
2017-10-17T23:00:15.900Z,93.40
2017-10-17T23:02:44.354Z,87.57
2017-10-17T23:05:12.837Z,98.87
2017-10-17T23:07:41.288Z,92.40
2017-10-17T23:10:09.761Z,91.73
2017-10-17T23:12:38.201Z,87.67
2017-10-17T23:15:06.694Z,117.80
2017-10-17T23:17:52.829Z,97.70
2017-10-17T23:20:36.216Z,82.63
2017-10-17T23:23:04.699Z,92.53
2017-10-17T23:25:33.291Z,116.00
2017-10-17T23:28:01.747Z,110.97
2017-10-17T23:30:30.200Z,103.13
2017-10-17T23:32:59.547Z,112.27
2017-10-17T23:35:28.030Z,126.17
2017-10-17T23:37:56.504Z,91.17
2017-10-17T23:40:24.945Z,79.73
2017-10-17T23:42:54.177Z,95.97
2017-10-17T23:45:22.623Z,94.50
2017-10-17T23:47:51.099Z,93.20
2017-10-17T23:50:19.547Z,79.93
2017-10-17T23:52:48.019Z,104.83
2017-10-17T23:55:16.472Z,98.80
2017-10-17T23:57:45.705Z,108.40
